sensor_id;sensor_type;location;lat;lon;timestamp;pressure;altitude;pressure_sealevel;temperature;humidity
9257;BME280;4665;51.368;6.782;2022-08-16T00:00:40;100289.06;;;19.83;86.81
9257;BME280;4665;51.368;6.782;2022-08-16T00:03:07;100283.50;;;19.78;87.03
9257;BME280;4665;51.368;6.782;2022-08-16T00:05:34;100291.00;;;19.76;87.38
9257;BME280;4665;51.368;6.782;2022-08-16T00:07:59;100297.25;;;19.76;87.37
9257;BME280;4665;51.368;6.782;2022-08-16T00:10:27;100300.41;;;19.73;87.63
9257;BME280;4665;51.368;6.782;2022-08-16T00:12:54;100306.41;;;19.75;87.57
9257;BME280;4665;51.368;6.782;2022-08-16T00:15:24;100314.28;;;19.77;87.47
9257;BME280;4665;51.368;6.782;2022-08-16T00:17:50;100318.44;;;19.80;87.82
9257;BME280;4665;51.368;6.782;2022-08-16T00:20:16;100316.16;;;19.76;88.00
9257;BME280;4665;51.368;6.782;2022-08-16T00:22:43;100316.84;;;19.72;88.11
9257;BME280;4665;51.368;6.782;2022-08-16T00:25:12;100324.13;;;19.71;88.01
9257;BME280;4665;51.368;6.782;2022-08-16T00:27:38;100322.88;;;19.67;88.54
9257;BME280;4665;51.368;6.782;2022-08-16T00:30:06;100324.59;;;19.68;88.39
9257;BME280;4665;51.368;6.782;2022-08-16T00:32:32;100331.81;;;19.68;88.40
9257;BME280;4665;51.368;6.782;2022-08-16T00:34:58;100333.69;;;19.67;88.42
9257;BME280;4665;51.368;6.782;2022-08-16T00:37:25;100341.19;;;19.65;88.60
9257;BME280;4665;51.368;6.782;2022-08-16T00:39:52;100338.34;;;19.60;88.74
9257;BME280;4665;51.368;6.782;2022-08-16T00:42:18;100324.47;;;19.57;89.08
9257;BME280;4665;51.368;6.782;2022-08-16T00:44:50;100333.75;;;19.61;89.13
9257;BME280;4665;51.368;6.782;2022-08-16T00:47:17;100320.94;;;19.56;89.15
9257;BME280;4665;51.368;6.782;2022-08-16T00:49:43;100320.72;;;19.58;89.13
9257;BME280;4665;51.368;6.782;2022-08-16T00:52:09;100329.22;;;19.61;89.13
9257;BME280;4665;51.368;6.782;2022-08-16T00:54:35;100308.56;;;19.48;89.30
9257;BME280;4665;51.368;6.782;2022-08-16T00:57:01;100313.13;;;19.48;89.29
9257;BME280;4665;51.368;6.782;2022-08-16T00:59:29;100311.78;;;19.57;89.66
9257;BME280;4665;51.368;6.782;2022-08-16T01:01:56;100319.44;;;19.60;90.11
9257;BME280;4665;51.368;6.782;2022-08-16T01:04:23;100310.72;;;19.58;89.55
9257;BME280;4665;51.368;6.782;2022-08-16T01:06:50;100302.47;;;19.53;89.48
9257;BME280;4665;51.368;6.782;2022-08-16T01:09:16;100306.00;;;19.53;89.47
9257;BME280;4665;51.368;6.782;2022-08-16T01:11:42;100324.16;;;19.65;89.38
9257;BME280;4665;51.368;6.782;2022-08-16T01:14:18;100330.84;;;19.62;89.35
9257;BME280;4665;51.368;6.782;2022-08-16T01:16:46;100322.59;;;19.57;89.62
9257;BME280;4665;51.368;6.782;2022-08-16T01:26:46;100327.19;;;19.57;89.75
9257;BME280;4665;51.368;6.782;2022-08-16T01:29:18;100322.59;;;19.57;90.06
9257;BME280;4665;51.368;6.782;2022-08-16T01:31:47;100321.09;;;19.61;89.96
9257;BME280;4665;51.368;6.782;2022-08-16T01:34:13;100322.75;;;19.62;89.95
9257;BME280;4665;51.368;6.782;2022-08-16T01:36:39;100319.81;;;19.64;89.67
9257;BME280;4665;51.368;6.782;2022-08-16T01:39:14;100323.94;;;19.66;89.63
9257;BME280;4665;51.368;6.782;2022-08-16T01:41:41;100326.22;;;19.69;89.57
9257;BME280;4665;51.368;6.782;2022-08-16T01:44:07;100332.00;;;19.73;89.07
9257;BME280;4665;51.368;6.782;2022-08-16T01:46:42;100329.66;;;19.76;88.94
9257;BME280;4665;51.368;6.782;2022-08-16T01:49:17;100321.13;;;19.80;88.44
9257;BME280;4665;51.368;6.782;2022-08-16T01:51:47;100331.25;;;19.84;88.45
9257;BME280;4665;51.368;6.782;2022-08-16T01:54:13;100327.28;;;19.87;88.11
9257;BME280;4665;51.368;6.782;2022-08-16T01:56:39;100326.44;;;19.86;88.00
9257;BME280;4665;51.368;6.782;2022-08-16T01:59:07;100322.09;;;19.85;87.88
9257;BME280;4665;51.368;6.782;2022-08-16T02:01:33;100319.84;;;19.82;87.26
9257;BME280;4665;51.368;6.782;2022-08-16T02:03:59;100323.97;;;19.85;87.39
9257;BME280;4665;51.368;6.782;2022-08-16T02:06:25;100333.13;;;19.84;87.17
9257;BME280;4665;51.368;6.782;2022-08-16T02:08:51;100320.66;;;19.83;87.21
9257;BME280;4665;51.368;6.782;2022-08-16T02:11:21;100330.28;;;19.79;87.07
9257;BME280;4665;51.368;6.782;2022-08-16T02:13:46;100324.72;;;19.73;87.17
9257;BME280;4665;51.368;6.782;2022-08-16T02:16:12;100317.06;;;19.70;86.83
9257;BME280;4665;51.368;6.782;2022-08-16T02:18:38;100339.19;;;19.79;86.95
9257;BME280;4665;51.368;6.782;2022-08-16T02:21:05;100331.53;;;19.76;87.10
9257;BME280;4665;51.368;6.782;2022-08-16T02:23:33;100327.63;;;19.72;86.99
9257;BME280;4665;51.368;6.782;2022-08-16T02:26:00;100315.25;;;19.64;86.88
9257;BME280;4665;51.368;6.782;2022-08-16T02:28:25;100331.16;;;19.72;86.76
9257;BME280;4665;51.368;6.782;2022-08-16T02:30:52;100327.03;;;19.70;87.03
9257;BME280;4665;51.368;6.782;2022-08-16T02:33:19;100331.63;;;19.69;86.85
9257;BME280;4665;51.368;6.782;2022-08-16T02:35:44;100323.31;;;19.71;86.70
9257;BME280;4665;51.368;6.782;2022-08-16T02:38:10;100312.25;;;19.72;86.35
9257;BME280;4665;51.368;6.782;2022-08-16T02:40:35;100332.97;;;19.79;85.95
9257;BME280;4665;51.368;6.782;2022-08-16T02:43:01;100325.53;;;19.74;85.74
9257;BME280;4665;51.368;6.782;2022-08-16T02:45:27;100332.38;;;19.76;85.64
9257;BME280;4665;51.368;6.782;2022-08-16T02:47:53;100315.44;;;19.63;86.04
9257;BME280;4665;51.368;6.782;2022-08-16T02:50:20;100316.28;;;19.63;86.24
9257;BME280;4665;51.368;6.782;2022-08-16T02:52:45;100331.75;;;19.74;86.34
9257;BME280;4665;51.368;6.782;2022-08-16T02:55:11;100316.66;;;19.67;86.52
9257;BME280;4665;51.368;6.782;2022-08-16T02:57:37;100318.97;;;19.63;86.85
9257;BME280;4665;51.368;6.782;2022-08-16T03:00:06;100325.44;;;19.62;87.11
9257;BME280;4665;51.368;6.782;2022-08-16T03:02:34;100329.41;;;19.60;87.71
9257;BME280;4665;51.368;6.782;2022-08-16T03:05:00;100330.69;;;19.57;87.76
9257;BME280;4665;51.368;6.782;2022-08-16T03:07:26;100322.19;;;19.53;88.09
9257;BME280;4665;51.368;6.782;2022-08-16T03:09:51;100323.13;;;19.47;88.67
9257;BME280;4665;51.368;6.782;2022-08-16T03:12:17;100325.44;;;19.44;89.29
9257;BME280;4665;51.368;6.782;2022-08-16T03:14:43;100329.19;;;19.43;89.47
9257;BME280;4665;51.368;6.782;2022-08-16T03:17:09;100331.72;;;19.38;89.38
9257;BME280;4665;51.368;6.782;2022-08-16T03:19:35;100333.00;;;19.35;89.58
9257;BME280;4665;51.368;6.782;2022-08-16T03:22:00;100319.56;;;19.28;89.87
9257;BME280;4665;51.368;6.782;2022-08-16T03:24:26;100330.59;;;19.27;89.91
9257;BME280;4665;51.368;6.782;2022-08-16T03:26:52;100335.19;;;19.26;90.20
9257;BME280;4665;51.368;6.782;2022-08-16T03:29:18;100325.91;;;19.16;90.75
9257;BME280;4665;51.368;6.782;2022-08-16T03:31:43;100312.69;;;19.07;90.72
9257;BME280;4665;51.368;6.782;2022-08-16T03:34:09;100325.97;;;19.09;91.07
9257;BME280;4665;51.368;6.782;2022-08-16T03:36:34;100313.59;;;19.01;91.23
9257;BME280;4665;51.368;6.782;2022-08-16T03:39:00;100323.56;;;19.01;91.30
9257;BME280;4665;51.368;6.782;2022-08-16T03:41:25;100327.75;;;18.97;91.63
9257;BME280;4665;51.368;6.782;2022-08-16T03:43:52;100341.41;;;19.02;91.95
9257;BME280;4665;51.368;6.782;2022-08-16T03:46:19;100323.06;;;18.85;92.39
9257;BME280;4665;51.368;6.782;2022-08-16T03:48:47;100348.13;;;18.92;92.27
9257;BME280;4665;51.368;6.782;2022-08-16T03:51:14;100322.06;;;18.80;92.53
9257;BME280;4665;51.368;6.782;2022-08-16T03:53:41;100321.25;;;18.72;92.93
9257;BME280;4665;51.368;6.782;2022-08-16T03:56:07;100324.41;;;18.69;93.10
9257;BME280;4665;51.368;6.782;2022-08-16T03:58:34;100325.06;;;18.65;93.29
9257;BME280;4665;51.368;6.782;2022-08-16T04:00:59;100317.63;;;18.60;93.58
9257;BME280;4665;51.368;6.782;2022-08-16T04:03:25;100329.03;;;18.62;93.77
9257;BME280;4665;51.368;6.782;2022-08-16T04:05:50;100328.19;;;18.62;93.94
9257;BME280;4665;51.368;6.782;2022-08-16T04:08:17;100339.59;;;18.64;94.12
9257;BME280;4665;51.368;6.782;2022-08-16T04:10:47;100351.41;;;18.63;94.26
9257;BME280;4665;51.368;6.782;2022-08-16T04:13:13;100341.31;;;18.51;94.42
9257;BME280;4665;51.368;6.782;2022-08-16T04:15:39;100356.03;;;18.56;94.82
9257;BME280;4665;51.368;6.782;2022-08-16T04:18:05;100343.25;;;18.44;95.09
9257;BME280;4665;51.368;6.782;2022-08-16T04:20:32;100351.94;;;18.46;95.19
9257;BME280;4665;51.368;6.782;2022-08-16T04:22:58;100360.03;;;18.46;95.28
9257;BME280;4665;51.368;6.782;2022-08-16T04:25:33;100359.88;;;18.41;95.32
9257;BME280;4665;51.368;6.782;2022-08-16T04:28:02;100368.97;;;18.40;95.74
9257;BME280;4665;51.368;6.782;2022-08-16T04:30:27;100371.66;;;18.40;95.98
9257;BME280;4665;51.368;6.782;2022-08-16T04:33:00;100362.63;;;18.28;96.12
9257;BME280;4665;51.368;6.782;2022-08-16T04:35:26;100372.72;;;18.39;96.43
9257;BME280;4665;51.368;6.782;2022-08-16T04:37:52;100374.19;;;18.35;96.51
9257;BME280;4665;51.368;6.782;2022-08-16T04:40:19;100356.84;;;18.24;96.91
9257;BME280;4665;51.368;6.782;2022-08-16T04:42:44;100375.06;;;18.29;97.22
9257;BME280;4665;51.368;6.782;2022-08-16T04:45:11;100368.47;;;18.18;97.54
9257;BME280;4665;51.368;6.782;2022-08-16T04:47:38;100375.09;;;18.22;97.19
9257;BME280;4665;51.368;6.782;2022-08-16T04:50:19;100385.25;;;18.27;97.33
9257;BME280;4665;51.368;6.782;2022-08-16T04:52:48;100392.09;;;18.23;97.62
9257;BME280;4665;51.368;6.782;2022-08-16T04:55:18;100399.56;;;18.21;98.02
9257;BME280;4665;51.368;6.782;2022-08-16T04:57:46;100396.25;;;18.19;98.15
9257;BME280;4665;51.368;6.782;2022-08-16T05:00:15;100396.50;;;18.17;98.32
9257;BME280;4665;51.368;6.782;2022-08-16T05:02:41;100405.41;;;18.18;98.19
9257;BME280;4665;51.368;6.782;2022-08-16T05:05:08;100408.09;;;18.18;98.64
9257;BME280;4665;51.368;6.782;2022-08-16T05:07:34;100401.66;;;18.19;98.66
9257;BME280;4665;51.368;6.782;2022-08-16T05:10:00;100392.53;;;18.20;98.31
9257;BME280;4665;51.368;6.782;2022-08-16T05:12:25;100407.28;;;18.17;98.24
9257;BME280;4665;51.368;6.782;2022-08-16T05:14:51;100405.41;;;18.18;98.24
9257;BME280;4665;51.368;6.782;2022-08-16T05:17:16;100405.41;;;18.18;98.21
9257;BME280;4665;51.368;6.782;2022-08-16T05:19:42;100413.47;;;18.24;98.84
9257;BME280;4665;51.368;6.782;2022-08-16T05:22:07;100404.13;;;18.20;98.57
9257;BME280;4665;51.368;6.782;2022-08-16T05:24:32;100415.31;;;18.24;98.79
9257;BME280;4665;51.368;6.782;2022-08-16T05:26:58;100405.56;;;18.29;98.82
9257;BME280;4665;51.368;6.782;2022-08-16T05:29:24;100411.94;;;18.35;98.66
9257;BME280;4665;51.368;6.782;2022-08-16T05:31:49;100420.22;;;18.40;98.53
9257;BME280;4665;51.368;6.782;2022-08-16T05:34:15;100404.91;;;18.34;98.06
9257;BME280;4665;51.368;6.782;2022-08-16T05:36:42;100421.03;;;18.47;98.19
9257;BME280;4665;51.368;6.782;2022-08-16T05:39:08;100413.13;;;18.53;97.54
9257;BME280;4665;51.368;6.782;2022-08-16T05:41:34;100405.22;;;18.51;97.42
9257;BME280;4665;51.368;6.782;2022-08-16T05:44:00;100424.88;;;18.65;97.22
9257;BME280;4665;51.368;6.782;2022-08-16T05:46:25;100406.44;;;18.62;96.42
9257;BME280;4665;51.368;6.782;2022-08-16T05:48:51;100394.16;;;18.66;95.84
9257;BME280;4665;51.368;6.782;2022-08-16T05:51:16;100417.31;;;18.87;95.29
9257;BME280;4665;51.368;6.782;2022-08-16T05:53:43;100386.81;;;18.80;94.79
9257;BME280;4665;51.368;6.782;2022-08-16T05:56:09;100390.09;;;18.88;94.40
9257;BME280;4665;51.368;6.782;2022-08-16T05:58:35;100419.22;;;19.05;94.04
9257;BME280;4665;51.368;6.782;2022-08-16T06:01:00;100407.56;;;19.11;93.75
9257;BME280;4665;51.368;6.782;2022-08-16T06:03:26;100409.41;;;19.17;93.61
9257;BME280;4665;51.368;6.782;2022-08-16T06:05:51;100415.13;;;19.27;92.00
9257;BME280;4665;51.368;6.782;2022-08-16T06:08:17;100417.56;;;19.36;93.13
9257;BME280;4665;51.368;6.782;2022-08-16T06:10:43;100424.69;;;19.48;92.98
9257;BME280;4665;51.368;6.782;2022-08-16T06:13:08;100427.72;;;19.59;92.50
9257;BME280;4665;51.368;6.782;2022-08-16T06:15:33;100439.31;;;19.66;90.08
9257;BME280;4665;51.368;6.782;2022-08-16T06:17:59;100444.22;;;19.75;89.33
9257;BME280;4665;51.368;6.782;2022-08-16T06:20:27;100442.88;;;19.85;87.05
9257;BME280;4665;51.368;6.782;2022-08-16T06:22:54;100442.56;;;19.93;86.86
9257;BME280;4665;51.368;6.782;2022-08-16T06:25:21;100449.72;;;20.06;87.72
9257;BME280;4665;51.368;6.782;2022-08-16T06:27:47;100444.00;;;20.14;86.64
9257;BME280;4665;51.368;6.782;2022-08-16T06:30:12;100437.47;;;20.22;85.45
9257;BME280;4665;51.368;6.782;2022-08-16T06:32:39;100439.41;;;20.33;84.59
9257;BME280;4665;51.368;6.782;2022-08-16T06:35:05;100435.94;;;20.44;84.41
9257;BME280;4665;51.368;6.782;2022-08-16T06:37:30;100429.63;;;20.50;83.58
9257;BME280;4665;51.368;6.782;2022-08-16T06:39:56;100434.75;;;20.58;83.05
9257;BME280;4665;51.368;6.782;2022-08-16T06:42:21;100441.59;;;20.61;82.01
9257;BME280;4665;51.368;6.782;2022-08-16T06:44:47;100444.78;;;20.70;82.32
9257;BME280;4665;51.368;6.782;2022-08-16T06:47:13;100445.75;;;20.75;82.08
9257;BME280;4665;51.368;6.782;2022-08-16T06:49:39;100444.47;;;20.78;81.90
9257;BME280;4665;51.368;6.782;2022-08-16T06:52:04;100437.16;;;20.78;81.38
9257;BME280;4665;51.368;6.782;2022-08-16T06:54:30;100445.31;;;20.90;81.60
9257;BME280;4665;51.368;6.782;2022-08-16T06:56:56;100445.72;;;20.94;80.33
9257;BME280;4665;51.368;6.782;2022-08-16T06:59:21;100445.59;;;21.00;79.46
9257;BME280;4665;51.368;6.782;2022-08-16T07:01:47;100455.50;;;21.07;80.10
9257;BME280;4665;51.368;6.782;2022-08-16T07:04:13;100447.38;;;21.07;79.44
9257;BME280;4665;51.368;6.782;2022-08-16T07:06:42;100449.16;;;21.13;80.03
9257;BME280;4665;51.368;6.782;2022-08-16T07:09:08;100461.91;;;21.24;79.91
9257;BME280;4665;51.368;6.782;2022-08-16T07:11:35;100458.13;;;21.25;79.17
9257;BME280;4665;51.368;6.782;2022-08-16T07:14:00;100445.78;;;21.29;79.65
9257;BME280;4665;51.368;6.782;2022-08-16T07:16:25;100452.38;;;21.33;78.48
9257;BME280;4665;51.368;6.782;2022-08-16T07:18:51;100467.00;;;21.44;78.91
9257;BME280;4665;51.368;6.782;2022-08-16T07:21:17;100471.38;;;21.45;78.31
9257;BME280;4665;51.368;6.782;2022-08-16T07:23:43;100470.69;;;21.50;78.71
9257;BME280;4665;51.368;6.782;2022-08-16T07:26:22;100465.38;;;21.55;78.22
9257;BME280;4665;51.368;6.782;2022-08-16T07:28:49;100466.09;;;21.62;77.21
9257;BME280;4665;51.368;6.782;2022-08-16T07:31:16;100457.38;;;21.60;76.96
9257;BME280;4665;51.368;6.782;2022-08-16T07:33:42;100466.34;;;21.72;77.50
9257;BME280;4665;51.368;6.782;2022-08-16T07:36:09;100462.91;;;21.77;76.11
9257;BME280;4665;51.368;6.782;2022-08-16T07:38:37;100468.47;;;21.82;76.46
9257;BME280;4665;51.368;6.782;2022-08-16T07:41:03;100466.66;;;21.88;75.60
9257;BME280;4665;51.368;6.782;2022-08-16T07:43:29;100473.28;;;21.92;75.13
9257;BME280;4665;51.368;6.782;2022-08-16T07:45:54;100479.41;;;21.99;74.90
9257;BME280;4665;51.368;6.782;2022-08-16T07:48:20;100462.78;;;22.07;75.81
9257;BME280;4665;51.368;6.782;2022-08-16T07:50:45;100473.72;;;22.12;75.26
9257;BME280;4665;51.368;6.782;2022-08-16T07:53:12;100478.44;;;22.17;73.71
9257;BME280;4665;51.368;6.782;2022-08-16T07:55:38;100488.13;;;22.24;74.04
9257;BME280;4665;51.368;6.782;2022-08-16T07:58:03;100481.88;;;22.24;73.13
9257;BME280;4665;51.368;6.782;2022-08-16T08:00:30;100494.13;;;22.26;73.14
9257;BME280;4665;51.368;6.782;2022-08-16T08:02:56;100502.47;;;22.37;73.81
9257;BME280;4665;51.368;6.782;2022-08-16T08:05:23;100499.06;;;22.41;72.58
9257;BME280;4665;51.368;6.782;2022-08-16T08:07:49;100494.47;;;22.42;73.19
9257;BME280;4665;51.368;6.782;2022-08-16T08:10:17;100499.38;;;22.57;71.97
9257;BME280;4665;51.368;6.782;2022-08-16T08:12:42;100498.16;;;22.64;71.42
9257;BME280;4665;51.368;6.782;2022-08-16T08:15:10;100498.97;;;22.77;71.85
9257;BME280;4665;51.368;6.782;2022-08-16T08:17:37;100509.59;;;22.95;72.36
9257;BME280;4665;51.368;6.782;2022-08-16T08:20:06;100506.22;;;22.88;70.10
9257;BME280;4665;51.368;6.782;2022-08-16T08:22:32;100509.13;;;22.98;69.43
9257;BME280;4665;51.368;6.782;2022-08-16T08:24:58;100516.31;;;23.04;69.41
9257;BME280;4665;51.368;6.782;2022-08-16T08:27:24;100496.03;;;23.07;71.32
9257;BME280;4665;51.368;6.782;2022-08-16T08:29:50;100512.19;;;23.30;70.57
9257;BME280;4665;51.368;6.782;2022-08-16T08:32:15;100503.97;;;23.42;69.72
9257;BME280;4665;51.368;6.782;2022-08-16T08:34:41;100505.19;;;23.51;68.24
9257;BME280;4665;51.368;6.782;2022-08-16T08:37:06;100497.03;;;23.51;68.24
9257;BME280;4665;51.368;6.782;2022-08-16T08:39:32;100507.66;;;23.53;68.11
9257;BME280;4665;51.368;6.782;2022-08-16T08:41:59;100498.19;;;23.56;68.39
9257;BME280;4665;51.368;6.782;2022-08-16T08:44:25;100520.91;;;23.66;68.97
9257;BME280;4665;51.368;6.782;2022-08-16T08:46:52;100517.53;;;23.59;68.51
9257;BME280;4665;51.368;6.782;2022-08-16T08:49:21;100516.22;;;23.62;68.85
9257;BME280;4665;51.368;6.782;2022-08-16T08:51:47;100528.34;;;23.71;68.02
9257;BME280;4665;51.368;6.782;2022-08-16T08:54:12;100527.16;;;23.67;68.53
9257;BME280;4665;51.368;6.782;2022-08-16T08:56:38;100523.41;;;23.68;67.28
9257;BME280;4665;51.368;6.782;2022-08-16T08:59:05;100509.72;;;23.63;68.01
9257;BME280;4665;51.368;6.782;2022-08-16T09:01:33;100521.94;;;23.77;68.04
9257;BME280;4665;51.368;6.782;2022-08-16T09:03:59;100512.94;;;23.93;68.74
9257;BME280;4665;51.368;6.782;2022-08-16T09:06:26;100501.38;;;24.03;67.66
9257;BME280;4665;51.368;6.782;2022-08-16T09:08:51;100514.97;;;24.03;64.84
9257;BME280;4665;51.368;6.782;2022-08-16T09:11:17;100519.72;;;24.13;65.50
9257;BME280;4665;51.368;6.782;2022-08-16T09:13:43;100517.06;;;24.18;64.77
9257;BME280;4665;51.368;6.782;2022-08-16T09:16:09;100525.63;;;24.27;64.34
9257;BME280;4665;51.368;6.782;2022-08-16T09:18:34;100513.75;;;24.33;66.12
9257;BME280;4665;51.368;6.782;2022-08-16T09:21:00;100519.69;;;24.47;62.99
9257;BME280;4665;51.368;6.782;2022-08-16T09:23:27;100528.22;;;24.55;62.46
9257;BME280;4665;51.368;6.782;2022-08-16T09:25:53;100526.81;;;24.53;62.84
9257;BME280;4665;51.368;6.782;2022-08-16T09:28:18;100518.72;;;24.58;62.00
9257;BME280;4665;51.368;6.782;2022-08-16T09:30:44;100509.22;;;24.61;62.28
9257;BME280;4665;51.368;6.782;2022-08-16T09:33:10;100509.13;;;24.77;61.28
9257;BME280;4665;51.368;6.782;2022-08-16T09:35:36;100510.53;;;24.80;60.50
9257;BME280;4665;51.368;6.782;2022-08-16T09:38:03;100512.53;;;24.90;60.14
9257;BME280;4665;51.368;6.782;2022-08-16T09:40:29;100520.34;;;25.08;59.49
9257;BME280;4665;51.368;6.782;2022-08-16T09:42:55;100525.59;;;25.15;58.09
9257;BME280;4665;51.368;6.782;2022-08-16T09:45:22;100501.88;;;25.15;58.88
9257;BME280;4665;51.368;6.782;2022-08-16T09:47:50;100515.91;;;25.24;57.20
9257;BME280;4665;51.368;6.782;2022-08-16T09:50:20;100510.94;;;25.48;57.15
9257;BME280;4665;51.368;6.782;2022-08-16T09:52:46;100504.84;;;25.36;56.45
9257;BME280;4665;51.368;6.782;2022-08-16T09:55:11;100504.94;;;25.46;55.13
9257;BME280;4665;51.368;6.782;2022-08-16T09:57:38;100501.16;;;25.52;55.80
9257;BME280;4665;51.368;6.782;2022-08-16T10:00:05;100520.38;;;25.68;55.63
9257;BME280;4665;51.368;6.782;2022-08-16T10:02:32;100502.09;;;25.68;56.64
9257;BME280;4665;51.368;6.782;2022-08-16T10:04:58;100498.31;;;25.74;56.37
9257;BME280;4665;51.368;6.782;2022-08-16T10:07:26;100499.94;;;25.70;53.07
9257;BME280;4665;51.368;6.782;2022-08-16T10:09:53;100501.34;;;25.78;53.62
9257;BME280;4665;51.368;6.782;2022-08-16T10:12:18;100515.38;;;25.92;54.07
9257;BME280;4665;51.368;6.782;2022-08-16T10:15:03;100510.03;;;26.07;55.91
9257;BME280;4665;51.368;6.782;2022-08-16T10:17:28;100503.44;;;26.03;53.30
9257;BME280;4665;51.368;6.782;2022-08-16T10:19:54;100513.66;;;26.23;53.22
9257;BME280;4665;51.368;6.782;2022-08-16T10:22:20;100499.69;;;26.19;53.12
9257;BME280;4665;51.368;6.782;2022-08-16T10:24:45;100508.69;;;26.15;51.02
9257;BME280;4665;51.368;6.782;2022-08-16T10:27:11;100506.50;;;26.17;53.10
9257;BME280;4665;51.368;6.782;2022-08-16T10:29:37;100506.56;;;26.27;53.77
9257;BME280;4665;51.368;6.782;2022-08-16T10:32:03;100509.63;;;26.41;52.86
9257;BME280;4665;51.368;6.782;2022-08-16T10:34:28;100503.34;;;26.45;52.07
9257;BME280;4665;51.368;6.782;2022-08-16T10:36:54;100497.63;;;26.37;50.93
9257;BME280;4665;51.368;6.782;2022-08-16T10:39:21;100511.84;;;26.49;50.06
9257;BME280;4665;51.368;6.782;2022-08-16T10:41:46;100502.22;;;26.31;50.80
9257;BME280;4665;51.368;6.782;2022-08-16T10:44:12;100513.78;;;26.49;52.03
9257;BME280;4665;51.368;6.782;2022-08-16T10:46:40;100515.47;;;26.60;50.83
9257;BME280;4665;51.368;6.782;2022-08-16T10:49:07;100510.84;;;26.65;52.28
9257;BME280;4665;51.368;6.782;2022-08-16T10:51:33;100504.59;;;26.70;50.56
9257;BME280;4665;51.368;6.782;2022-08-16T10:53:58;100509.22;;;26.70;49.84
9257;BME280;4665;51.368;6.782;2022-08-16T10:56:24;100499.91;;;26.60;50.15
9257;BME280;4665;51.368;6.782;2022-08-16T10:58:50;100500.75;;;26.66;49.60
9257;BME280;4665;51.368;6.782;2022-08-16T11:01:16;100507.88;;;26.77;48.28
9257;BME280;4665;51.368;6.782;2022-08-16T11:03:41;100503.78;;;26.80;48.59
9257;BME280;4665;51.368;6.782;2022-08-16T11:06:08;100503.28;;;26.98;48.84
9257;BME280;4665;51.368;6.782;2022-08-16T11:08:35;100511.22;;;27.10;48.15
9257;BME280;4665;51.368;6.782;2022-08-16T11:11:01;100528.75;;;27.24;46.30
9257;BME280;4665;51.368;6.782;2022-08-16T11:13:26;100518.94;;;27.28;47.44
9257;BME280;4665;51.368;6.782;2022-08-16T11:15:53;100507.44;;;27.26;46.74
9257;BME280;4665;51.368;6.782;2022-08-16T11:18:19;100499.78;;;27.23;47.31
9257;BME280;4665;51.368;6.782;2022-08-16T11:20:44;100502.00;;;27.32;45.56
9257;BME280;4665;51.368;6.782;2022-08-16T11:23:12;100501.44;;;27.35;45.98
9257;BME280;4665;51.368;6.782;2022-08-16T11:25:38;100505.78;;;27.41;45.22
9257;BME280;4665;51.368;6.782;2022-08-16T11:28:05;100511.00;;;27.47;44.80
9257;BME280;4665;51.368;6.782;2022-08-16T11:30:31;100509.09;;;27.38;44.71
9257;BME280;4665;51.368;6.782;2022-08-16T11:32:57;100518.41;;;27.32;44.98
9257;BME280;4665;51.368;6.782;2022-08-16T11:35:27;100509.09;;;27.27;44.58
9257;BME280;4665;51.368;6.782;2022-08-16T11:37:59;100508.84;;;27.34;46.08
9257;BME280;4665;51.368;6.782;2022-08-16T11:40:29;100507.72;;;27.45;44.19
9257;BME280;4665;51.368;6.782;2022-08-16T11:42:56;100509.34;;;27.57;44.32
9257;BME280;4665;51.368;6.782;2022-08-16T11:45:21;100510.19;;;27.62;44.44
9257;BME280;4665;51.368;6.782;2022-08-16T11:47:47;100502.50;;;27.69;44.02
9257;BME280;4665;51.368;6.782;2022-08-16T11:50:14;100501.44;;;27.60;43.58
9257;BME280;4665;51.368;6.782;2022-08-16T11:52:41;100506.59;;;27.77;44.55
9257;BME280;4665;51.368;6.782;2022-08-16T11:55:09;100517.28;;;27.84;42.94
9257;BME280;4665;51.368;6.782;2022-08-16T11:57:35;100504.16;;;27.81;43.71
9257;BME280;4665;51.368;6.782;2022-08-16T12:00:06;100502.25;;;27.86;43.26
9257;BME280;4665;51.368;6.782;2022-08-16T12:02:34;100521.63;;;28.05;41.96
9257;BME280;4665;51.368;6.782;2022-08-16T12:04:59;100506.88;;;27.91;43.22
9257;BME280;4665;51.368;6.782;2022-08-16T12:07:25;100509.34;;;27.93;44.21
9257;BME280;4665;51.368;6.782;2022-08-16T12:09:52;100517.00;;;27.96;43.20
9257;BME280;4665;51.368;6.782;2022-08-16T12:12:18;100516.44;;;27.94;43.46
9257;BME280;4665;51.368;6.782;2022-08-16T12:14:43;100525.22;;;27.90;42.71
9257;BME280;4665;51.368;6.782;2022-08-16T12:17:09;100509.63;;;27.81;42.92
9257;BME280;4665;51.368;6.782;2022-08-16T12:19:34;100529.59;;;27.97;43.07
9257;BME280;4665;51.368;6.782;2022-08-16T12:22:01;100506.63;;;27.87;42.62
9257;BME280;4665;51.368;6.782;2022-08-16T12:24:27;100500.06;;;27.78;43.97
9257;BME280;4665;51.368;6.782;2022-08-16T12:26:53;100490.72;;;27.79;43.94
9257;BME280;4665;51.368;6.782;2022-08-16T12:29:19;100512.34;;;28.06;42.64
9257;BME280;4665;51.368;6.782;2022-08-16T12:31:45;100507.56;;;28.38;41.83
9257;BME280;4665;51.368;6.782;2022-08-16T12:34:10;100513.31;;;28.41;40.76
9257;BME280;4665;51.368;6.782;2022-08-16T12:36:36;100511.94;;;28.39;41.63
9257;BME280;4665;51.368;6.782;2022-08-16T12:39:05;100507.09;;;28.20;41.59
9257;BME280;4665;51.368;6.782;2022-08-16T12:41:32;100503.03;;;28.02;42.16
9257;BME280;4665;51.368;6.782;2022-08-16T12:43:58;100519.75;;;27.90;42.63
9257;BME280;4665;51.368;6.782;2022-08-16T12:46:24;100511.81;;;27.79;44.32
9257;BME280;4665;51.368;6.782;2022-08-16T12:48:50;100518.13;;;27.69;43.20
9257;BME280;4665;51.368;6.782;2022-08-16T12:51:37;100523.88;;;27.62;43.18
9257;BME280;4665;51.368;6.782;2022-08-16T12:54:05;100516.19;;;27.59;43.10
9257;BME280;4665;51.368;6.782;2022-08-16T12:56:37;100512.66;;;27.48;42.96
9257;BME280;4665;51.368;6.782;2022-08-16T12:59:06;100515.91;;;27.45;43.76
9257;BME280;4665;51.368;6.782;2022-08-16T13:01:34;100514.81;;;27.57;42.38
9257;BME280;4665;51.368;6.782;2022-08-16T13:04:02;100506.88;;;27.50;43.14
9257;BME280;4665;51.368;6.782;2022-08-16T13:06:33;100505.00;;;27.51;43.21
9257;BME280;4665;51.368;6.782;2022-08-16T13:08:59;100503.06;;;27.56;43.02
9257;BME280;4665;51.368;6.782;2022-08-16T13:11:39;100514.03;;;27.66;43.26
9257;BME280;4665;51.368;6.782;2022-08-16T13:14:10;100514.84;;;27.67;43.85